Time;durP1;ratioP1;P1;durP2;ratioP2;P2;SDS_P1;SDS_P2;PMS_P1;PMS_P2;Temp;Humidity;BMP_temperature;BMP_pressure;BME280_temperature;BME280_humidity;BME280_pressure;Samples;Min_cycle;Max_cycle;Signal;HPM_P1;HPM_P2
2023/05/31 00:00:17;;;;;;;9.88;5.05;;;10.10;99.90;;;;;;5013220;28;20033;-62
2023/05/31 00:02:43;;;;;;;8.98;5.32;;;10.10;99.90;;;;;;5026599;28;20048;-64
2023/05/31 00:05:09;;;;;;;9.43;4.88;;;10.10;99.90;;;;;;5028149;28;20045;-63
2023/05/31 00:07:35;;;;;;;10.95;4.90;;;10.10;99.90;;;;;;5011302;28;20044;-63
2023/05/31 00:10:01;;;;;;;10.60;4.82;;;10.10;99.90;;;;;;5031297;28;20066;-63
2023/05/31 00:12:26;;;;;;;7.10;4.93;;;10.10;99.90;;;;;;5016952;28;20045;-63
2023/05/31 00:14:52;;;;;;;7.78;5.18;;;10.00;99.90;;;;;;5030587;28;20080;-64
2023/05/31 00:17:18;;;;;;;10.80;5.18;;;10.00;99.90;;;;;;5015364;28;20642;-63
2023/05/31 00:19:44;;;;;;;11.07;5.00;;;10.00;99.90;;;;;;5031372;28;20051;-63
2023/05/31 00:22:10;;;;;;;8.35;4.82;;;10.00;99.90;;;;;;5025966;28;20120;-62
2023/05/31 00:24:36;;;;;;;8.50;4.82;;;9.90;99.90;;;;;;5012062;28;20569;-63
2023/05/31 00:27:02;;;;;;;9.00;4.90;;;9.90;99.90;;;;;;5024087;28;20127;-64
2023/05/31 00:29:28;;;;;;;9.85;5.35;;;9.90;99.90;;;;;;5033118;28;20050;-63
2023/05/31 00:31:54;;;;;;;8.52;4.82;;;9.90;99.90;;;;;;5029750;28;20056;-62
2023/05/31 00:34:20;;;;;;;12.07;5.22;;;9.90;99.90;;;;;;5030410;28;20409;-63
2023/05/31 00:36:46;;;;;;;8.88;5.13;;;9.90;99.90;;;;;;5018052;28;20048;-63
2023/05/31 00:39:11;;;;;;;7.88;4.82;;;9.90;99.90;;;;;;5032475;28;22006;-62
2023/05/31 00:41:37;;;;;;;8.38;4.72;;;9.80;99.90;;;;;;5030114;28;20128;-62
2023/05/31 00:44:03;;;;;;;8.02;4.80;;;9.80;99.90;;;;;;5031425;28;20052;-64
2023/05/31 00:46:34;;;;;;;9.52;5.00;;;9.80;99.90;;;;;;5014523;28;20048;-62
2023/05/31 00:49:00;;;;;;;7.60;4.93;;;9.80;99.90;;;;;;5030822;28;20052;-62
2023/05/31 00:51:27;;;;;;;7.68;4.57;;;9.80;99.90;;;;;;5032645;28;20049;-62
2023/05/31 00:53:54;;;;;;;8.65;4.75;;;9.70;99.90;;;;;;5028668;28;21135;-62
2023/05/31 00:56:21;;;;;;;8.55;5.03;;;9.70;99.90;;;;;;5024946;28;21785;-64
2023/05/31 00:58:48;;;;;;;8.88;5.53;;;9.70;99.90;;;;;;5005288;28;20685;-62
2023/05/31 01:01:14;;;;;;;8.23;4.60;;;9.70;99.90;;;;;;5027486;28;20049;-64
2023/05/31 01:03:41;;;;;;;8.55;5.00;;;9.70;99.90;;;;;;5015120;28;20049;-64
2023/05/31 01:06:08;;;;;;;10.30;5.20;;;9.60;99.90;;;;;;5008869;28;20045;-64
2023/05/31 01:08:35;;;;;;;7.70;5.07;;;9.60;99.90;;;;;;5019203;28;20056;-63
2023/05/31 01:11:21;;;;;;;9.20;5.57;;;9.60;99.90;;;;;;5006615;28;20115;-64
2023/05/31 01:14:04;;;;;;;9.75;5.05;;;9.60;99.90;;;;;;5019076;28;20076;-64
2023/05/31 01:16:36;;;;;;;10.48;5.30;;;9.50;99.90;;;;;;5017073;28;20064;-63
2023/05/31 01:19:06;;;;;;;7.55;4.88;;;9.60;99.90;;;;;;5021810;28;20045;-65
2023/05/31 01:21:57;;;;;;;8.32;4.90;;;9.50;99.90;;;;;;5022064;28;20098;-63
2023/05/31 01:24:34;;;;;;;10.55;5.72;;;9.50;99.90;;;;;;5017999;28;20065;-64
2023/05/31 01:27:02;;;;;;;11.32;5.18;;;9.50;99.90;;;;;;5021997;28;20512;-63
2023/05/31 01:29:30;;;;;;;9.90;5.22;;;9.50;99.90;;;;;;5007214;28;20128;-63
2023/05/31 01:32:01;;;;;;;10.35;5.88;;;9.50;99.90;;;;;;5006372;28;20176;-64
2023/05/31 01:34:26;;;;;;;7.65;4.97;;;9.50;99.90;;;;;;5022127;28;20065;-64
2023/05/31 01:36:52;;;;;;;9.82;5.70;;;9.40;99.90;;;;;;5007459;28;20132;-64
2023/05/31 01:39:19;;;;;;;8.25;5.50;;;9.40;99.90;;;;;;5028629;28;22003;-62
2023/05/31 01:41:48;;;;;;;10.02;5.53;;;9.40;99.90;;;;;;5022521;28;20045;-64
2023/05/31 01:44:18;;;;;;;9.05;5.18;;;9.40;99.90;;;;;;5028960;28;20049;-64
2023/05/31 01:46:45;;;;;;;10.77;5.68;;;9.40;99.90;;;;;;5021225;28;21991;-63
2023/05/31 01:49:11;;;;;;;12.15;5.63;;;9.40;99.90;;;;;;5024652;28;20048;-63
2023/05/31 01:51:39;;;;;;;11.98;5.53;;;9.40;99.90;;;;;;5011427;28;20049;-62
2023/05/31 01:54:05;;;;;;;9.18;5.40;;;9.30;99.90;;;;;;5023380;28;20257;-64
2023/05/31 01:56:32;;;;;;;21.50;5.75;;;9.30;99.90;;;;;;5026353;28;20055;-63
2023/05/31 01:58:58;;;;;;;9.75;5.75;;;9.30;99.90;;;;;;5026271;28;20501;-64
2023/05/31 02:01:24;;;;;;;9.98;5.82;;;9.30;99.90;;;;;;5026334;28;20130;-64
2023/05/31 02:03:51;;;;;;;12.82;6.55;;;9.30;99.90;;;;;;5013428;28;20033;-64
2023/05/31 02:06:17;;;;;;;11.98;6.32;;;9.30;99.90;;;;;;5020357;28;20082;-64
2023/05/31 02:08:43;;;;;;;10.80;6.35;;;9.30;99.90;;;;;;5027521;28;20397;-63
2023/05/31 02:11:09;;;;;;;11.43;6.18;;;9.30;99.90;;;;;;4970138;28;1176823;-62
2023/05/31 02:13:35;;;;;;;10.52;5.88;;;9.20;99.90;;;;;;4995732;28;20073;-63
2023/05/31 02:16:03;;;;;;;11.57;5.63;;;9.20;99.90;;;;;;5025255;28;20435;-63
2023/05/31 02:18:29;;;;;;;8.55;5.18;;;9.20;99.90;;;;;;5024609;28;20037;-64
2023/05/31 02:20:55;;;;;;;11.90;5.68;;;9.20;99.90;;;;;;5022768;28;21540;-64
2023/05/31 02:23:22;;;;;;;7.70;4.95;;;9.20;99.90;;;;;;5024446;28;20087;-63
2023/05/31 02:25:48;;;;;;;14.07;5.63;;;9.20;99.90;;;;;;5027428;28;20036;-62
2023/05/31 02:28:15;;;;;;;10.68;5.60;;;9.20;99.90;;;;;;5025944;28;20402;-63
2023/05/31 02:30:40;;;;;;;11.73;6.18;;;9.20;99.90;;;;;;5034748;28;20037;-63
2023/05/31 02:33:07;;;;;;;14.13;6.18;;;9.10;99.90;;;;;;5028193;28;20046;-63
2023/05/31 02:35:33;;;;;;;11.23;6.05;;;9.10;99.90;;;;;;5011335;28;20052;-62
2023/05/31 02:37:59;;;;;;;10.48;5.63;;;9.00;99.90;;;;;;5025899;28;20036;-63
2023/05/31 02:40:25;;;;;;;11.88;5.75;;;9.10;99.90;;;;;;5028199;28;20036;-63
2023/05/31 02:42:51;;;;;;;18.27;6.07;;;9.10;99.90;;;;;;5022182;28;20090;-64
2023/05/31 02:45:17;;;;;;;13.48;6.38;;;9.00;99.90;;;;;;5023697;28;21466;-63
2023/05/31 02:47:43;;;;;;;10.00;6.15;;;9.00;99.90;;;;;;5025710;28;20098;-63
2023/05/31 02:50:10;;;;;;;11.48;5.97;;;9.00;99.90;;;;;;5022840;28;20044;-64
2023/05/31 02:52:36;;;;;;;9.77;5.68;;;9.00;99.90;;;;;;5004651;28;20049;-62
2023/05/31 02:55:03;;;;;;;11.23;6.07;;;9.00;99.90;;;;;;5035258;28;20715;-62
2023/05/31 02:57:29;;;;;;;9.93;5.55;;;9.00;99.90;;;;;;5028870;28;20052;-62
2023/05/31 03:00:00;;;;;;;8.32;5.55;;;8.90;99.90;;;;;;5031459;28;20171;-63
2023/05/31 03:02:26;;;;;;;8.52;5.32;;;9.00;99.90;;;;;;5031313;28;20045;-63
2023/05/31 03:04:52;;;;;;;7.90;5.38;;;9.00;99.90;;;;;;5026890;28;20052;-64
2023/05/31 03:07:18;;;;;;;7.85;5.38;;;8.90;99.90;;;;;;5012785;28;20037;-62
2023/05/31 03:09:43;;;;;;;8.57;5.18;;;8.90;99.90;;;;;;5029661;28;20087;-63
2023/05/31 03:12:10;;;;;;;10.07;5.18;;;8.90;99.90;;;;;;5015918;28;20123;-64
2023/05/31 03:14:36;;;;;;;8.30;4.93;;;8.90;99.90;;;;;;4995921;28;20120;-62
2023/05/31 03:17:03;;;;;;;8.95;5.47;;;8.90;99.90;;;;;;4999660;28;20037;-64
2023/05/31 03:19:28;;;;;;;8.85;5.38;;;8.80;99.90;;;;;;5000153;28;20049;-64
2023/05/31 03:21:54;;;;;;;10.00;5.60;;;8.80;99.90;;;;;;5015825;28;20410;-63
2023/05/31 03:24:20;;;;;;;14.82;6.15;;;8.80;99.90;;;;;;5023704;28;20043;-63
2023/05/31 03:26:46;;;;;;;11.45;5.95;;;8.80;99.90;;;;;;5012810;28;20069;-63
2023/05/31 03:29:11;;;;;;;11.68;5.95;;;8.80;99.90;;;;;;5009650;28;20040;-63
2023/05/31 03:31:37;;;;;;;13.68;6.38;;;8.80;99.90;;;;;;4993947;28;21756;-63
2023/05/31 03:34:03;;;;;;;14.38;6.68;;;8.80;99.90;;;;;;5008706;28;20045;-65
2023/05/31 03:36:29;;;;;;;15.52;7.30;;;8.70;99.90;;;;;;5006441;28;20048;-63
2023/05/31 03:38:54;;;;;;;14.00;6.85;;;8.80;99.90;;;;;;5007646;28;20709;-62
2023/05/31 03:41:20;;;;;;;15.10;6.10;;;8.80;99.90;;;;;;5012332;28;20045;-63
2023/05/31 03:43:46;;;;;;;9.13;6.00;;;8.80;99.90;;;;;;5002972;28;20099;-62
2023/05/31 03:46:12;;;;;;;13.77;6.68;;;8.80;99.90;;;;;;5011409;28;20417;-64
2023/05/31 03:48:38;;;;;;;12.70;7.90;;;8.70;99.90;;;;;;5020420;28;20087;-63
2023/05/31 03:51:04;;;;;;;12.82;7.18;;;8.70;99.90;;;;;;4996113;28;20045;-62
2023/05/31 03:53:30;;;;;;;15.27;7.57;;;8.80;99.90;;;;;;4991345;28;20048;-63
2023/05/31 03:55:56;;;;;;;15.52;7.82;;;8.70;99.90;;;;;;5019306;28;20494;-63
2023/05/31 03:58:22;;;;;;;13.18;7.32;;;8.80;99.90;;;;;;5021426;28;21525;-63
2023/05/31 04:00:48;;;;;;;14.75;6.88;;;8.80;99.90;;;;;;5004096;28;20030;-65
2023/05/31 04:03:13;;;;;;;15.65;7.63;;;8.80;99.90;;;;;;5009193;28;20056;-63
2023/05/31 04:05:40;;;;;;;17.38;6.78;;;8.80;99.90;;;;;;5009463;28;20159;-63
2023/05/31 04:08:06;;;;;;;16.08;6.70;;;8.80;99.90;;;;;;5028138;28;20040;-63
2023/05/31 04:10:32;;;;;;;14.50;7.05;;;8.80;99.90;;;;;;5020964;28;20645;-65
2023/05/31 04:12:58;;;;;;;16.73;7.72;;;8.90;99.90;;;;;;5023412;28;20045;-65
2023/05/31 04:15:24;;;;;;;17.58;7.75;;;8.90;99.90;;;;;;5022012;28;20041;-63
2023/05/31 04:17:50;;;;;;;20.65;8.38;;;9.00;99.90;;;;;;5023588;28;20081;-63
2023/05/31 04:20:19;;;;;;;20.45;8.50;;;9.10;99.90;;;;;;5017180;28;20048;-63
2023/05/31 04:22:45;;;;;;;16.65;8.43;;;9.10;99.90;;;;;;5008336;28;20509;-63
2023/05/31 04:25:12;;;;;;;18.85;8.20;;;9.20;99.90;;;;;;4993572;28;20075;-63
2023/05/31 04:27:40;;;;;;;22.75;8.75;;;9.30;99.90;;;;;;5009190;28;20041;-63
2023/05/31 04:30:07;;;;;;;24.17;9.35;;;9.30;99.90;;;;;;5026433;28;20497;-63
2023/05/31 04:32:34;;;;;;;21.98;8.95;;;9.40;99.90;;;;;;5009873;28;20040;-64
2023/05/31 04:35:03;;;;;;;17.33;7.97;;;9.50;99.90;;;;;;5035836;28;20048;-63
2023/05/31 04:37:32;;;;;;;18.55;8.55;;;9.60;99.90;;;;;;5014611;28;20044;-65
2023/05/31 04:39:59;;;;;;;22.73;9.13;;;9.60;99.90;;;;;;5028978;28;20048;-63
2023/05/31 04:42:27;;;;;;;22.73;8.75;;;9.70;99.90;;;;;;5031146;28;20542;-63
2023/05/31 04:44:57;;;;;;;21.50;8.38;;;9.80;99.90;;;;;;5031685;28;20876;-63
2023/05/31 04:47:29;;;;;;;18.88;8.85;;;9.90;99.90;;;;;;5024578;28;20424;-63
2023/05/31 04:49:59;;;;;;;21.00;9.25;;;9.90;99.90;;;;;;5031670;28;20083;-63
2023/05/31 04:52:30;;;;;;;17.92;8.43;;;10.00;99.90;;;;;;5033547;28;20048;-64
2023/05/31 04:54:58;;;;;;;22.83;8.85;;;10.10;99.90;;;;;;5026011;28;20377;-63
2023/05/31 04:57:26;;;;;;;22.50;8.95;;;10.10;99.90;;;;;;5013137;28;20049;-64
2023/05/31 04:59:52;;;;;;;22.23;8.80;;;10.20;99.90;;;;;;5030103;28;20037;-63
2023/05/31 05:02:18;;;;;;;21.17;8.52;;;10.20;99.90;;;;;;5025770;28;20037;-64
2023/05/31 05:04:45;;;;;;;23.33;9.10;;;10.30;99.90;;;;;;5030679;28;20056;-64
2023/05/31 05:07:11;;;;;;;23.55;9.55;;;10.30;99.90;;;;;;5028072;28;20843;-63
2023/05/31 05:09:36;;;;;;;19.52;8.70;;;10.40;99.90;;;;;;5013593;28;20048;-63
2023/05/31 05:12:03;;;;;;;23.85;9.20;;;10.50;99.90;;;;;;5017802;28;20581;-64
2023/05/31 05:14:29;;;;;;;23.48;9.60;;;10.50;99.90;;;;;;5031134;28;20054;-63
2023/05/31 05:16:55;;;;;;;32.22;10.75;;;10.60;99.90;;;;;;5007866;28;20146;-63
2023/05/31 05:19:21;;;;;;;19.80;9.13;;;10.70;99.90;;;;;;5028672;28;20123;-63
2023/05/31 05:21:46;;;;;;;25.67;9.77;;;10.70;99.90;;;;;;5018791;28;20045;-63
2023/05/31 05:24:12;;;;;;;25.30;8.65;;;10.80;99.90;;;;;;5022444;28;20047;-63
2023/05/31 05:26:38;;;;;;;26.60;9.57;;;10.90;99.90;;;;;;4999676;28;20483;-64
2023/05/31 05:29:03;;;;;;;25.08;9.25;;;10.90;99.90;;;;;;5010969;28;20804;-63
2023/05/31 05:31:30;;;;;;;25.30;9.95;;;11.00;99.90;;;;;;5020409;28;20508;-63
2023/05/31 05:33:55;;;;;;;25.48;10.60;;;11.00;99.90;;;;;;5001226;28;20037;-63
2023/05/31 05:36:22;;;;;;;25.95;10.80;;;11.10;99.90;;;;;;4992795;28;20056;-63
2023/05/31 05:38:48;;;;;;;30.13;10.57;;;11.20;99.90;;;;;;4991754;28;20564;-64
2023/05/31 05:41:13;;;;;;;24.83;10.48;;;11.30;99.90;;;;;;4996391;28;20120;-65
2023/05/31 05:43:39;;;;;;;28.08;9.82;;;11.40;99.90;;;;;;5024009;28;20033;-65
2023/05/31 05:46:05;;;;;;;32.08;10.30;;;11.50;99.90;;;;;;5022832;28;20065;-64
2023/05/31 05:48:31;;;;;;;22.33;9.27;;;11.60;99.90;;;;;;5019343;28;20751;-63
2023/05/31 05:50:58;;;;;;;26.00;8.88;;;11.70;99.90;;;;;;5035474;28;20525;-63
2023/05/31 05:53:23;;;;;;;23.60;9.23;;;11.80;99.90;;;;;;5023487;28;20124;-63
2023/05/31 05:55:51;;;;;;;21.15;8.23;;;11.90;99.90;;;;;;5029016;28;20175;-63
2023/05/31 05:58:18;;;;;;;18.17;8.02;;;12.00;99.90;;;;;;5024328;28;20450;-63
2023/05/31 06:00:47;;;;;;;21.35;8.02;;;12.00;99.90;;;;;;5009431;28;20549;-62
2023/05/31 06:03:16;;;;;;;17.55;8.02;;;12.20;99.90;;;;;;5026504;28;20052;-65
2023/05/31 06:05:42;;;;;;;21.65;8.15;;;12.30;99.90;;;;;;5027758;28;20045;-63
2023/05/31 06:08:11;;;;;;;15.90;7.35;;;12.40;99.90;;;;;;5007112;28;20108;-63
2023/05/31 06:10:37;;;;;;;22.17;7.93;;;12.40;99.90;;;;;;5016608;28;20134;-63
2023/05/31 06:13:04;;;;;;;19.63;7.68;;;12.50;99.90;;;;;;5008492;28;20065;-64
2023/05/31 06:15:30;;;;;;;18.88;7.53;;;12.70;99.90;;;;;;5025310;28;20040;-63
2023/05/31 06:17:56;;;;;;;22.20;9.35;;;12.70;99.90;;;;;;5018469;28;20080;-62
2023/05/31 06:20:22;;;;;;;19.92;7.07;;;12.90;99.90;;;;;;5025784;28;20049;-61
2023/05/31 06:22:49;;;;;;;17.05;6.93;;;13.00;99.90;;;;;;5032502;28;20053;-62
2023/05/31 06:25:16;;;;;;;13.82;6.32;;;13.10;99.90;;;;;;5019922;28;20132;-60
2023/05/31 06:27:42;;;;;;;11.18;5.35;;;13.20;99.90;;;;;;5030418;28;20037;-61
2023/05/31 06:30:09;;;;;;;12.23;5.25;;;13.30;99.90;;;;;;5034964;28;20408;-61
2023/05/31 06:32:36;;;;;;;12.27;4.85;;;13.40;99.90;;;;;;5031335;28;20049;-59
2023/05/31 06:35:02;;;;;;;10.82;4.25;;;13.50;99.90;;;;;;5020506;28;20041;-60
2023/05/31 06:37:29;;;;;;;8.25;3.95;;;13.60;99.90;;;;;;5015293;28;20392;-60
2023/05/31 06:39:55;;;;;;;10.57;4.53;;;13.70;99.90;;;;;;5034796;28;20143;-60
2023/05/31 06:42:21;;;;;;;10.40;3.88;;;13.70;99.90;;;;;;5033794;28;20068;-61
2023/05/31 06:44:47;;;;;;;10.55;3.70;;;13.90;99.90;;;;;;5031618;28;20527;-59
2023/05/31 06:47:14;;;;;;;12.43;3.58;;;14.00;99.90;;;;;;5034623;28;20229;-60
2023/05/31 06:49:39;;;;;;;10.75;4.10;;;14.10;99.90;;;;;;5034964;28;20049;-60
2023/05/31 06:52:06;;;;;;;8.35;3.58;;;14.10;99.90;;;;;;5032989;28;20428;-60
2023/05/31 06:54:35;;;;;;;7.45;3.40;;;14.20;99.90;;;;;;5032511;28;20525;-60
2023/05/31 06:57:02;;;;;;;7.07;3.72;;;14.30;99.90;;;;;;5019207;28;20570;-60
2023/05/31 06:59:28;;;;;;;6.63;3.40;;;14.40;99.90;;;;;;5032027;28;20547;-60
2023/05/31 07:01:54;;;;;;;6.22;3.70;;;14.40;99.90;;;;;;5031810;28;20372;-62
2023/05/31 07:04:20;;;;;;;8.27;3.45;;;14.50;99.90;;;;;;5031334;28;20045;-61
2023/05/31 07:06:46;;;;;;;10.82;3.80;;;14.60;99.90;;;;;;5033902;28;20049;-60
2023/05/31 07:09:12;;;;;;;15.07;3.55;;;14.70;99.90;;;;;;5034953;28;20055;-60
2023/05/31 07:11:42;;;;;;;8.88;3.47;;;14.80;99.90;;;;;;5033466;28;20114;-60
2023/05/31 07:14:09;;;;;;;8.02;3.50;;;14.90;99.90;;;;;;5045738;28;20106;-60
2023/05/31 07:16:35;;;;;;;9.45;3.97;;;15.00;99.90;;;;;;5031476;28;20045;-61
2023/05/31 07:19:02;;;;;;;9.63;3.58;;;15.10;99.90;;;;;;5029764;28;20040;-61
2023/05/31 07:21:28;;;;;;;11.10;3.70;;;15.20;99.90;;;;;;5036794;28;20041;-60
2023/05/31 07:23:55;;;;;;;10.90;3.95;;;15.30;99.90;;;;;;5034876;28;20076;-60
2023/05/31 07:26:22;;;;;;;9.73;3.97;;;15.40;99.90;;;;;;5034958;28;20048;-60
2023/05/31 07:28:47;;;;;;;9.90;3.88;;;15.50;99.90;;;;;;5050664;28;20059;-60
2023/05/31 07:31:17;;;;;;;8.70;3.30;;;15.60;99.90;;;;;;5028906;28;20041;-60
2023/05/31 07:33:43;;;;;;;7.20;3.88;;;15.60;99.90;;;;;;5034056;28;20045;-60
2023/05/31 07:36:09;;;;;;;10.07;4.00;;;15.70;99.90;;;;;;5032952;28;20413;-61
2023/05/31 07:38:35;;;;;;;10.15;3.70;;;15.80;99.90;;;;;;5019820;28;20044;-60
2023/05/31 07:41:01;;;;;;;12.88;4.22;;;15.90;99.90;;;;;;5019143;28;20041;-61
2023/05/31 07:43:29;;;;;;;11.52;3.42;;;16.00;99.90;;;;;;5039527;28;20053;-61
2023/05/31 07:45:56;;;;;;;8.32;3.53;;;16.00;99.90;;;;;;5023880;28;20197;-60
2023/05/31 07:48:23;;;;;;;9.70;3.58;;;16.10;99.90;;;;;;5035886;28;20056;-60
2023/05/31 07:50:49;;;;;;;9.65;3.33;;;16.20;99.90;;;;;;5035067;28;20520;-60
2023/05/31 07:53:16;;;;;;;8.07;3.10;;;16.30;99.90;;;;;;5036873;28;20050;-60
2023/05/31 07:55:42;;;;;;;6.50;2.78;;;16.40;99.90;;;;;;5031857;28;20040;-61
2023/05/31 07:58:07;;;;;;;7.65;2.85;;;16.50;99.90;;;;;;5029971;28;20108;-60
2023/05/31 08:00:33;;;;;;;6.50;2.50;;;16.50;99.90;;;;;;5034730;28;20092;-61
2023/05/31 08:02:59;;;;;;;7.65;2.60;;;16.60;99.90;;;;;;5018774;28;20467;-61
2023/05/31 08:05:26;;;;;;;5.47;2.45;;;16.60;99.90;;;;;;5029211;28;20886;-62
2023/05/31 08:07:52;;;;;;;4.50;2.10;;;16.70;99.90;;;;;;5030976;28;20052;-61
2023/05/31 08:10:18;;;;;;;11.90;2.30;;;16.80;99.90;;;;;;5036607;28;20044;-60
2023/05/31 08:12:43;;;;;;;10.75;2.10;;;16.80;99.90;;;;;;5040956;28;20080;-60
2023/05/31 08:15:11;;;;;;;5.63;2.13;;;16.90;99.90;;;;;;5037878;28;20059;-60
2023/05/31 08:17:36;;;;;;;6.07;2.55;;;17.10;99.90;;;;;;5040195;28;20040;-60
2023/05/31 08:20:06;;;;;;;8.30;3.08;;;17.20;99.90;;;;;;5034801;28;20040;-61
2023/05/31 08:22:32;;;;;;;5.80;2.50;;;17.30;99.90;;;;;;5038986;28;20049;-60
2023/05/31 08:24:58;;;;;;;6.03;2.50;;;17.40;99.90;;;;;;5038937;28;20605;-60
2023/05/31 08:27:24;;;;;;;8.18;2.60;;;17.50;99.90;;;;;;5044102;28;20049;-60
2023/05/31 08:29:50;;;;;;;8.77;2.78;;;17.50;99.90;;;;;;5040557;28;20049;-60
2023/05/31 08:32:16;;;;;;;9.75;2.72;;;17.60;99.90;;;;;;5036189;28;20515;-61
2023/05/31 08:34:43;;;;;;;8.35;2.85;;;17.60;99.90;;;;;;5022621;28;20481;-60
2023/05/31 08:37:09;;;;;;;12.38;2.75;;;17.60;99.90;;;;;;5039519;28;20033;-61
2023/05/31 08:39:35;;;;;;;10.60;2.60;;;17.60;99.90;;;;;;5039099;28;20115;-60
2023/05/31 08:42:05;;;;;;;5.43;2.22;;;17.60;99.90;;;;;;5038360;28;20051;-60
2023/05/31 08:44:32;;;;;;;8.60;2.85;;;17.70;99.90;;;;;;5033401;28;20048;-60
2023/05/31 08:47:04;;;;;;;10.80;3.25;;;17.70;99.90;;;;;;5003773;28;20110;-62
2023/05/31 08:49:33;;;;;;;9.77;3.25;;;17.70;99.90;;;;;;5018220;28;20072;-62
2023/05/31 08:52:00;;;;;;;7.88;2.95;;;17.60;99.90;;;;;;5032975;28;20412;-61
2023/05/31 08:54:26;;;;;;;12.18;3.92;;;17.50;99.90;;;;;;5038397;28;20422;-60
2023/05/31 08:56:53;;;;;;;7.25;3.20;;;17.60;99.90;;;;;;5037580;28;20048;-60
2023/05/31 08:59:19;;;;;;;9.13;3.03;;;17.60;99.90;;;;;;5034490;28;20083;-60
2023/05/31 09:01:47;;;;;;;9.20;3.53;;;17.80;99.90;;;;;;5034588;28;20072;-62
2023/05/31 09:04:14;;;;;;;13.05;3.35;;;17.80;99.90;;;;;;5034160;28;20459;-60
2023/05/31 09:06:40;;;;;;;11.90;4.20;;;17.90;99.90;;;;;;5023259;28;20064;-61
2023/05/31 09:09:09;;;;;;;10.55;4.47;;;18.00;99.90;;;;;;5031524;28;20044;-61
2023/05/31 09:11:39;;;;;;;19.05;4.80;;;18.00;99.90;;;;;;5027217;28;20048;-63
2023/05/31 09:14:05;;;;;;;12.70;4.55;;;18.00;99.90;;;;;;5033347;28;20056;-61
2023/05/31 09:16:31;;;;;;;20.83;5.45;;;17.80;99.90;;;;;;5034265;28;20048;-63
2023/05/31 09:19:06;;;;;;;16.63;4.40;;;17.70;99.90;;;;;;5034942;28;20099;-62
2023/05/31 09:21:43;;;;;;;13.93;5.25;;;17.70;99.90;;;;;;5033056;28;20064;-61
2023/05/31 09:24:10;;;;;;;16.55;5.18;;;17.80;99.90;;;;;;5033025;28;20036;-62
2023/05/31 09:27:05;;;;;;;17.60;5.15;;;17.90;99.90;;;;;;5034555;28;20459;-61
2023/05/31 09:29:31;;;;;;;9.55;4.30;;;17.90;99.90;;;;;;5017542;28;20055;-60
2023/05/31 09:32:10;;;;;;;14.05;5.10;;;18.00;99.90;;;;;;5032778;28;20545;-61
2023/05/31 09:34:36;;;;;;;17.55;4.75;;;17.90;99.90;;;;;;5032802;28;20552;-63
2023/05/31 09:37:03;;;;;;;14.30;4.65;;;17.90;99.90;;;;;;5020599;28;20037;-62
2023/05/31 09:39:30;;;;;;;12.15;4.63;;;17.90;99.90;;;;;;5021989;28;20443;-61
2023/05/31 09:41:58;;;;;;;16.35;5.40;;;18.00;99.90;;;;;;5034761;28;20040;-61
2023/05/31 09:44:28;;;;;;;14.40;4.88;;;17.90;99.90;;;;;;5034517;28;20139;-63
2023/05/31 09:46:54;;;;;;;13.10;4.68;;;17.90;99.90;;;;;;5035148;28;20151;-61
2023/05/31 09:49:20;;;;;;;17.23;5.03;;;18.00;99.90;;;;;;5025477;28;20123;-61
2023/05/31 09:51:52;;;;;;;10.25;4.75;;;18.10;99.90;;;;;;5034748;28;20353;-60
2023/05/31 09:54:22;;;;;;;13.60;5.22;;;18.20;99.90;;;;;;5030660;28;20052;-63
2023/05/31 09:56:48;;;;;;;11.07;4.75;;;18.20;99.90;;;;;;5023196;28;20040;-61
2023/05/31 09:59:15;;;;;;;13.23;5.18;;;18.20;99.90;;;;;;5033642;28;20033;-63
2023/05/31 10:01:42;;;;;;;17.02;5.10;;;18.20;99.90;;;;;;5032382;28;20036;-62
2023/05/31 10:04:07;;;;;;;11.35;4.82;;;18.40;99.90;;;;;;5037717;28;20126;-62
2023/05/31 10:06:37;;;;;;;18.23;6.35;;;18.50;99.90;;;;;;5016108;28;20144;-61
2023/05/31 10:09:04;;;;;;;7.95;4.95;;;18.50;99.90;;;;;;5027418;28;20273;-62
2023/05/31 10:11:36;;;;;;;12.13;5.90;;;18.60;99.90;;;;;;5034545;28;20056;-63
2023/05/31 10:14:07;;;;;;;9.65;5.35;;;18.80;99.90;;;;;;5018397;28;20125;-61
2023/05/31 10:16:43;;;;;;;7.70;5.20;;;18.90;99.90;;;;;;5034926;28;20301;-61
2023/05/31 10:19:12;;;;;;;10.27;5.53;;;19.00;99.90;;;;;;5033936;28;20044;-62
2023/05/31 10:21:42;;;;;;;12.88;6.05;;;19.10;99.90;;;;;;5019783;28;20052;-61
2023/05/31 10:24:24;;;;;;;18.60;5.75;;;19.10;99.90;;;;;;5007225;28;20052;-61
2023/05/31 10:27:05;;;;;;;16.77;5.50;;;19.20;99.90;;;;;;5021859;28;20071;-61
2023/05/31 10:29:38;;;;;;;13.90;5.78;;;19.30;99.90;;;;;;5023195;28;20127;-62
2023/05/31 10:32:34;;;;;;;13.30;5.82;;;19.40;99.90;;;;;;5022939;28;20037;-62
2023/05/31 10:35:01;;;;;;;15.48;5.75;;;19.40;99.90;;;;;;5027863;28;20073;-62
2023/05/31 10:37:28;;;;;;;11.65;5.60;;;19.50;99.90;;;;;;5023164;28;20041;-63
2023/05/31 10:40:12;;;;;;;11.63;4.47;;;19.50;99.90;;;;;;5027883;28;20042;-63
2023/05/31 10:42:53;;;;;;;13.20;4.88;;;19.60;99.90;;;;;;5025196;28;20045;-63
2023/05/31 10:45:28;;;;;;;11.68;4.47;;;19.70;99.90;;;;;;5029138;28;20195;-61
2023/05/31 10:48:15;;;;;;;10.27;5.03;;;19.70;99.90;;;;;;5006748;28;20045;-63
2023/05/31 10:51:01;;;;;;;8.82;4.13;;;19.80;99.90;;;;;;5022686;28;20045;-61
2023/05/31 10:53:34;;;;;;;12.57;5.15;;;19.80;99.90;;;;;;5010218;28;20115;-62
2023/05/31 10:56:27;;;;;;;10.07;5.10;;;19.90;99.90;;;;;;5032827;28;20097;-62
2023/05/31 10:58:53;;;;;;;10.70;4.90;;;20.00;99.90;;;;;;5023024;28;20130;-62
2023/05/31 11:01:21;;;;;;;12.88;5.18;;;20.10;99.90;;;;;;5033244;28;20032;-63
2023/05/31 11:03:53;;;;;;;9.82;4.90;;;20.10;99.90;;;;;;5030094;28;20049;-62
2023/05/31 11:06:30;;;;;;;;;;;20.20;99.90;;;;;;5015324;28;20055;-63
2023/05/31 11:09:09;;;;;;;13.77;4.85;;;20.20;99.90;;;;;;5030626;28;19958;-62
2023/05/31 11:11:42;;;;;;;10.00;5.20;;;20.10;99.90;;;;;;5029503;28;20068;-62
2023/05/31 11:14:09;;;;;;;10.48;4.78;;;20.30;99.90;;;;;;5025373;28;20086;-64
2023/05/31 11:16:45;;;;;;;8.23;4.35;;;20.30;99.90;;;;;;5026028;28;20845;-63
2023/05/31 11:19:20;;;;;;;9.75;4.15;;;20.30;99.90;;;;;;5022985;28;20437;-61
2023/05/31 11:21:50;;;;;;;9.52;3.90;;;20.30;99.90;;;;;;5025617;28;20437;-62
2023/05/31 11:24:52;;;;;;;7.88;3.67;;;20.30;99.90;;;;;;5025922;28;20049;-62
2023/05/31 11:27:19;;;;;;;6.45;3.10;;;20.40;99.90;;;;;;5014325;28;20084;-70
2023/05/31 11:29:48;;;;;;;6.43;3.22;;;20.40;99.80;;;;;;5015442;28;20206;-70
2023/05/31 11:32:21;;;;;;;8.63;3.03;;;20.50;99.60;;;;;;5030823;28;20062;-69
2023/05/31 11:34:54;;;;;;;7.65;2.80;;;20.50;99.10;;;;;;5024928;28;20057;-69
2023/05/31 11:37:23;;;;;;;8.82;3.08;;;20.50;99.40;;;;;;5035979;28;20032;-69
2023/05/31 11:39:50;;;;;;;7.10;3.53;;;20.60;99.40;;;;;;5030844;28;20057;-70
2023/05/31 11:42:16;;;;;;;9.63;3.70;;;20.70;99.40;;;;;;5035203;28;20126;-70
2023/05/31 11:44:46;;;;;;;9.43;4.47;;;20.80;99.20;;;;;;5015693;28;20056;-68
2023/05/31 11:47:21;;;;;;;12.07;4.18;;;20.80;98.90;;;;;;5011653;28;20041;-69
2023/05/31 11:49:47;;;;;;;7.50;4.05;;;20.80;99.00;;;;;;5022732;28;20455;-70
2023/05/31 11:52:17;;;;;;;9.30;4.50;;;20.80;98.90;;;;;;5015230;28;20124;-70
2023/05/31 11:54:45;;;;;;;10.02;4.00;;;20.90;98.50;;;;;;5033291;28;20033;-70
2023/05/31 11:57:11;;;;;;;8.93;3.83;;;20.80;98.40;;;;;;5035411;28;20045;-69
2023/05/31 11:59:39;;;;;;;8.85;3.80;;;21.00;98.60;;;;;;5019212;28;20127;-70
2023/05/31 12:02:06;;;;;;;10.23;4.50;;;21.10;98.50;;;;;;5018874;28;20080;-69
2023/05/31 12:04:35;;;;;;;8.80;4.20;;;21.20;97.80;;;;;;5031679;28;25343;-69
2023/05/31 12:07:01;;;;;;;8.73;3.92;;;21.10;97.40;;;;;;5023412;28;20454;-69
2023/05/31 12:09:28;;;;;;;11.07;3.90;;;21.10;97.80;;;;;;5031200;28;20546;-70
2023/05/31 12:11:55;;;;;;;12.43;4.32;;;21.20;98.00;;;;;;5031347;28;20223;-70
2023/05/31 12:14:23;;;;;;;8.30;3.67;;;21.30;98.10;;;;;;4999334;28;21295;-69
2023/05/31 12:16:49;;;;;;;11.35;4.50;;;21.40;98.60;;;;;;5005487;28;20519;-70
2023/05/31 12:19:16;;;;;;;8.35;3.70;;;21.50;98.10;;;;;;5022904;28;20045;-69
2023/05/31 12:21:42;;;;;;;8.15;3.40;;;21.50;97.30;;;;;;5002629;28;20037;-69
2023/05/31 12:24:12;;;;;;;11.77;3.90;;;21.50;96.90;;;;;;5017715;28;20059;-69
2023/05/31 12:26:39;;;;;;;11.63;4.35;;;21.60;96.40;;;;;;5019455;28;20049;-70
2023/05/31 12:29:05;;;;;;;7.57;4.57;;;21.60;96.50;;;;;;5005663;28;20489;-71
2023/05/31 12:31:34;;;;;;;10.95;5.15;;;21.70;97.20;;;;;;5007156;28;20887;-72
2023/05/31 12:34:16;;;;;;;9.98;5.38;;;21.90;96.40;;;;;;5016102;28;20424;-70
2023/05/31 12:36:44;;;;;;;15.40;5.43;;;22.00;95.90;;;;;;5014831;28;20045;-69
2023/05/31 12:39:12;;;;;;;8.18;5.05;;;22.10;96.00;;;;;;5021914;28;20147;-70
2023/05/31 12:41:42;;;;;;;13.35;5.10;;;22.10;95.70;;;;;;5002912;28;20153;-69
2023/05/31 12:44:08;;;;;;;9.75;4.25;;;22.20;95.70;;;;;;5016354;28;20052;-72
2023/05/31 12:46:41;;;;;;;11.60;4.15;;;22.20;95.10;;;;;;4993301;28;20086;-70